createdAt,value
2019-03-22T00:02:20.472Z,5.12
2019-03-22T00:04:47.852Z,5.07
2019-03-22T00:07:15.288Z,5.06
2019-03-22T00:09:42.571Z,5.08
2019-03-22T00:12:09.949Z,5.02
2019-03-22T00:14:49.859Z,5.05
2019-03-22T00:17:17.195Z,5.06
2019-03-22T00:19:44.579Z,5.03
2019-03-22T00:22:11.906Z,4.97
2019-03-22T00:24:39.176Z,4.95
2019-03-22T00:27:16.007Z,4.88
2019-03-22T00:29:36.020Z,4.80
2019-03-22T00:32:03.288Z,4.84
2019-03-22T00:34:30.557Z,4.83
2019-03-22T00:36:58.377Z,4.87
2019-03-22T00:39:26.206Z,4.98
2019-03-22T00:41:53.492Z,5.02
2019-03-22T00:44:20.828Z,5.10
2019-03-22T00:46:48.214Z,5.06
2019-03-22T00:49:15.451Z,5.22
2019-03-22T00:51:42.799Z,5.23
2019-03-22T00:54:10.201Z,5.22
2019-03-22T00:56:37.475Z,5.29
2019-03-22T00:59:04.930Z,5.34
2019-03-22T01:01:32.306Z,5.40
2019-03-22T01:03:59.674Z,5.45
2019-03-22T01:06:27.105Z,5.50
2019-03-22T01:09:35.140Z,5.54
2019-03-22T01:12:02.961Z,5.63
2019-03-22T01:14:30.327Z,5.71
2019-03-22T01:16:57.941Z,5.80
2019-03-22T01:19:25.343Z,5.82
2019-03-22T01:21:52.900Z,5.89
2019-03-22T01:24:20.188Z,5.85
2019-03-22T01:26:47.603Z,5.84
2019-03-22T01:29:15.014Z,5.89
2019-03-22T01:31:42.286Z,5.87
2019-03-22T01:34:10.112Z,6.03
2019-03-22T01:36:37.407Z,6.00
2019-03-22T01:39:05.915Z,6.01
2019-03-22T01:41:33.237Z,6.03
2019-03-22T01:44:00.595Z,6.06
2019-03-22T01:46:28.932Z,6.08
2019-03-22T01:48:56.323Z,6.02
2019-03-22T01:51:23.715Z,6.03
2019-03-22T01:53:50.987Z,5.94
2019-03-22T01:56:18.715Z,5.94
2019-03-22T01:58:46.430Z,5.99
2019-03-22T02:01:13.992Z,6.07
2019-03-22T02:03:41.338Z,6.08
2019-03-22T02:06:08.705Z,6.14
2019-03-22T02:08:35.980Z,6.12
2019-03-22T02:11:03.382Z,6.18
2019-03-22T02:13:30.683Z,6.26
2019-03-22T02:15:58.045Z,6.22
2019-03-22T02:18:25.803Z,6.33
2019-03-22T02:20:53.170Z,6.36
2019-03-22T02:23:20.448Z,6.32
2019-03-22T02:25:47.871Z,6.44
2019-03-22T02:28:15.149Z,6.37
2019-03-22T02:30:42.807Z,6.37
2019-03-22T02:33:10.426Z,6.33
2019-03-22T02:35:37.809Z,6.40
2019-03-22T02:38:05.097Z,6.45
2019-03-22T02:40:32.486Z,6.49
2019-03-22T02:42:59.887Z,6.47
2019-03-22T02:45:27.265Z,6.46
2019-03-22T02:47:54.607Z,6.52
2019-03-22T02:50:21.911Z,6.56
2019-03-22T02:52:49.192Z,6.57
2019-03-22T02:55:16.504Z,6.63
2019-03-22T02:57:43.875Z,6.58
2019-03-22T03:00:13.553Z,6.63
2019-03-22T03:02:40.935Z,6.67
2019-03-22T03:05:32.469Z,6.69
2019-03-22T03:08:00.127Z,6.68
2019-03-22T03:10:27.469Z,6.73
2019-03-22T03:12:55.215Z,6.73
2019-03-22T03:15:22.666Z,6.78
2019-03-22T03:17:50.493Z,6.80
2019-03-22T03:20:30.475Z,6.87
2019-03-22T03:22:57.756Z,6.86
2019-03-22T03:25:25.027Z,6.87
2019-03-22T03:27:52.772Z,6.99
2019-03-22T03:30:20.167Z,7.03
2019-03-22T03:32:48.050Z,7.06
2019-03-22T03:35:15.718Z,7.00
2019-03-22T03:37:43.148Z,7.08
2019-03-22T03:40:10.840Z,7.02
2019-03-22T03:42:38.254Z,7.04
2019-03-22T03:45:06.532Z,7.07
2019-03-22T03:47:33.813Z,7.16
2019-03-22T03:50:01.558Z,7.15
2019-03-22T03:52:28.816Z,7.10
2019-03-22T03:54:56.103Z,7.16
2019-03-22T03:57:23.431Z,7.18
2019-03-22T03:59:51.000Z,7.21
2019-03-22T04:02:18.278Z,7.16
2019-03-22T04:04:45.750Z,7.14
2019-03-22T04:07:13.135Z,7.18
2019-03-22T04:09:40.416Z,7.19
2019-03-22T04:12:07.862Z,7.25
2019-03-22T04:14:35.267Z,7.40
2019-03-22T04:17:02.637Z,7.30
2019-03-22T04:19:30.287Z,7.27
2019-03-22T04:21:57.684Z,7.41
2019-03-22T04:24:25.073Z,7.45
2019-03-22T04:26:52.581Z,7.38
2019-03-22T04:29:20.083Z,7.39
2019-03-22T04:31:47.369Z,7.38
2019-03-22T04:34:15.298Z,7.44
2019-03-22T04:36:42.688Z,7.43
2019-03-22T04:39:10.342Z,7.40
2019-03-22T04:41:37.783Z,7.40
2019-03-22T04:44:12.702Z,7.43
2019-03-22T04:47:21.088Z,7.47
2019-03-22T04:50:29.285Z,7.48
2019-03-22T04:52:57.229Z,7.63
2019-03-22T04:55:25.274Z,7.54
2019-03-22T04:58:33.667Z,7.54
2019-03-22T05:01:01.706Z,7.53
2019-03-22T05:03:30.157Z,7.55
2019-03-22T05:06:18.702Z,7.61
2019-03-22T05:09:07.588Z,7.66
2019-03-22T05:11:35.568Z,7.62
2019-03-22T05:14:43.650Z,7.62
2019-03-22T05:17:51.811Z,7.62
2019-03-22T05:20:59.967Z,7.61
2019-03-22T05:26:44.789Z,7.67
2019-03-22T05:29:52.832Z,7.65
2019-03-22T05:32:20.586Z,7.73
2019-03-22T05:34:48.019Z,7.74
2019-03-22T05:37:15.269Z,7.80
2019-03-22T05:39:42.840Z,7.79
2019-03-22T05:42:10.529Z,7.85
2019-03-22T05:44:37.815Z,7.81
2019-03-22T05:47:05.167Z,7.85
2019-03-22T05:49:32.449Z,7.97
2019-03-22T05:51:59.726Z,8.01
2019-03-22T05:54:27.173Z,8.01
2019-03-22T05:56:54.700Z,8.01
2019-03-22T05:59:22.372Z,8.10
2019-03-22T06:01:49.858Z,8.17
2019-03-22T06:04:17.143Z,8.18
2019-03-22T06:06:44.887Z,8.19
2019-03-22T06:09:12.242Z,8.28
2019-03-22T06:11:39.803Z,8.34
2019-03-22T06:14:07.198Z,8.35
2019-03-22T06:16:34.652Z,8.40
2019-03-22T06:19:01.947Z,8.37
2019-03-22T06:21:29.230Z,8.37
2019-03-22T06:23:56.819Z,8.36
2019-03-22T06:26:24.260Z,8.39
2019-03-22T06:28:51.738Z,8.44
2019-03-22T06:31:20.787Z,8.48
2019-03-22T06:33:48.960Z,8.48
2019-03-22T06:36:16.595Z,8.53
2019-03-22T06:38:44.641Z,8.54
2019-03-22T06:41:12.221Z,8.57
2019-03-22T06:43:40.676Z,8.64
2019-03-22T06:46:08.361Z,8.72
2019-03-22T06:48:35.984Z,8.75
2019-03-22T06:51:03.631Z,8.78
2019-03-22T06:53:31.331Z,8.82
2019-03-22T06:55:58.977Z,8.87
2019-03-22T06:58:26.923Z,8.91
2019-03-22T07:00:54.613Z,8.96
2019-03-22T07:03:22.257Z,8.93
2019-03-22T07:05:50.240Z,8.92
2019-03-22T07:08:17.949Z,9.06
2019-03-22T07:10:45.571Z,8.98
2019-03-22T07:13:32.474Z,8.98
2019-03-22T07:16:00.081Z,9.00
2019-03-22T07:18:27.716Z,9.02
2019-03-22T07:20:55.485Z,9.12
2019-03-22T07:23:23.087Z,9.14
2019-03-22T07:25:50.770Z,9.25
2019-03-22T07:28:18.529Z,9.22
2019-03-22T07:30:46.183Z,9.26
2019-03-22T07:33:14.189Z,9.36
2019-03-22T07:35:41.930Z,9.40
2019-03-22T07:38:09.545Z,9.40
2019-03-22T07:40:37.163Z,9.52
2019-03-22T07:43:04.857Z,9.57
2019-03-22T07:45:33.000Z,9.58
2019-03-22T07:48:00.626Z,9.63
2019-03-22T07:50:28.505Z,9.67
2019-03-22T07:52:56.139Z,9.70
2019-03-22T07:55:24.183Z,9.77
2019-03-22T07:57:51.913Z,9.83
2019-03-22T08:00:30.129Z,9.91
2019-03-22T08:02:48.912Z,9.95
2019-03-22T08:05:16.597Z,10.05
2019-03-22T08:07:44.463Z,10.12
2019-03-22T08:10:11.849Z,9.87
2019-03-22T08:12:39.298Z,10.02
2019-03-22T08:15:08.329Z,9.93
2019-03-22T08:17:36.321Z,10.05
2019-03-22T08:20:04.802Z,9.90
2019-03-22T08:22:32.547Z,9.76
2019-03-22T08:25:00.404Z,9.97
2019-03-22T08:27:28.148Z,10.06
2019-03-22T08:29:55.844Z,10.15
2019-03-22T08:32:23.680Z,9.98
2019-03-22T08:34:51.874Z,10.24
2019-03-22T08:37:19.507Z,10.34
2019-03-22T08:39:49.341Z,10.06
2019-03-22T08:42:18.961Z,10.40
2019-03-22T08:44:47.197Z,10.16
2019-03-22T08:47:14.854Z,10.33
2019-03-22T08:49:43.792Z,10.41
2019-03-22T08:52:11.560Z,10.59
2019-03-22T08:54:39.311Z,10.61
2019-03-22T08:57:07.067Z,10.72
2019-03-22T08:59:53.698Z,10.40
2019-03-22T09:02:21.096Z,10.47
2019-03-22T09:04:48.780Z,10.47
2019-03-22T09:07:16.148Z,10.29
2019-03-22T09:10:04.061Z,10.03
2019-03-22T09:12:33.708Z,10.16
2019-03-22T09:15:01.233Z,10.13
2019-03-22T09:17:28.636Z,9.99
2019-03-22T09:19:56.010Z,10.00
2019-03-22T09:22:24.114Z,9.91
2019-03-22T09:24:51.985Z,10.24
2019-03-22T09:27:19.461Z,10.35
2019-03-22T09:29:47.481Z,10.11
2019-03-22T09:32:16.125Z,10.50
2019-03-22T09:34:43.436Z,10.70
2019-03-22T09:37:10.913Z,10.84
2019-03-22T09:39:38.960Z,10.94
2019-03-22T09:42:06.416Z,11.08
2019-03-22T09:44:43.162Z,11.15
2019-03-22T09:47:03.549Z,10.96
2019-03-22T09:49:31.227Z,10.63
2019-03-22T09:51:58.868Z,10.50
2019-03-22T09:54:26.601Z,10.29
2019-03-22T09:56:54.403Z,10.25
2019-03-22T09:59:22.267Z,9.91
2019-03-22T10:01:50.118Z,10.35
2019-03-22T10:04:20.537Z,10.21
2019-03-22T10:06:48.615Z,9.99
2019-03-22T10:09:16.584Z,10.37
2019-03-22T10:11:44.177Z,10.08
2019-03-22T10:14:13.257Z,10.03
2019-03-22T10:16:40.978Z,10.27
2019-03-22T10:19:08.663Z,10.05
2019-03-22T10:21:36.628Z,10.12
2019-03-22T10:24:04.351Z,10.35
2019-03-22T10:26:32.011Z,10.49
2019-03-22T10:28:59.621Z,10.55
2019-03-22T10:31:37.086Z,10.35
2019-03-22T10:33:56.624Z,10.33
2019-03-22T10:36:23.931Z,10.46
2019-03-22T10:38:51.559Z,10.56
2019-03-22T10:41:18.857Z,10.76
2019-03-22T10:43:46.293Z,10.59
2019-03-22T10:46:13.738Z,10.56
2019-03-22T10:48:41.030Z,10.72
2019-03-22T10:51:08.738Z,10.59
2019-03-22T10:53:36.252Z,10.65
2019-03-22T10:56:03.630Z,10.82
2019-03-22T10:58:31.162Z,10.87
2019-03-22T11:00:58.717Z,10.80
2019-03-22T11:03:26.086Z,10.61
2019-03-22T11:05:53.910Z,10.86
2019-03-22T11:08:21.385Z,10.80
2019-03-22T11:11:08.009Z,10.72
2019-03-22T11:13:35.504Z,10.81
2019-03-22T11:18:51.907Z,10.59
2019-03-22T11:21:19.185Z,10.45
2019-03-22T11:23:46.957Z,10.81
2019-03-22T11:26:14.809Z,10.99
2019-03-22T11:28:42.270Z,10.74
2019-03-22T11:31:09.542Z,10.85
2019-03-22T11:36:43.621Z,11.42
2019-03-22T11:39:15.583Z,10.90
2019-03-22T11:41:40.986Z,10.86
2019-03-22T11:44:09.042Z,11.01
2019-03-22T11:46:36.787Z,11.24
2019-03-22T11:49:04.427Z,11.46
2019-03-22T11:51:32.094Z,11.38
2019-03-22T11:53:59.887Z,11.16
2019-03-22T11:56:27.533Z,11.58
2019-03-22T11:58:55.580Z,11.71
2019-03-22T12:01:23.693Z,11.59
2019-03-22T12:03:51.369Z,11.75
2019-03-22T12:06:19.035Z,11.99
2019-03-22T12:08:47.280Z,12.19
2019-03-22T12:11:14.921Z,12.07
2019-03-22T12:13:42.614Z,12.45
2019-03-22T12:16:10.320Z,12.03
2019-03-22T12:18:38.340Z,11.86
2019-03-22T12:21:05.961Z,12.05
2019-03-22T12:23:34.079Z,12.48
2019-03-22T12:26:02.045Z,12.88
2019-03-22T12:28:30.105Z,12.95
2019-03-22T12:30:57.785Z,12.93
2019-03-22T12:33:25.414Z,13.15
2019-03-22T12:35:53.105Z,12.89
2019-03-22T12:38:20.859Z,12.92
2019-03-22T12:40:48.534Z,12.86
2019-03-22T12:43:16.154Z,13.05
2019-03-22T12:45:43.858Z,13.40
2019-03-22T12:48:11.494Z,13.50
2019-03-22T12:50:39.144Z,13.65
2019-03-22T12:53:07.161Z,13.84
2019-03-22T12:55:34.834Z,13.59
2019-03-22T12:58:02.878Z,13.42
2019-03-22T13:00:30.792Z,13.53
2019-03-22T13:02:58.447Z,13.69
2019-03-22T13:05:26.118Z,13.63
2019-03-22T13:07:53.891Z,13.76
2019-03-22T13:10:42.423Z,13.72
2019-03-22T13:13:09.940Z,13.86
2019-03-22T13:15:37.312Z,14.03
2019-03-22T13:18:04.692Z,14.00
2019-03-22T13:20:32.143Z,13.74
2019-03-22T13:22:59.886Z,13.94
2019-03-22T13:25:27.419Z,13.85
2019-03-22T13:27:54.807Z,13.52
2019-03-22T13:30:41.334Z,13.57
2019-03-22T13:33:08.659Z,13.83
2019-03-22T13:35:35.922Z,14.11
2019-03-22T13:38:03.473Z,14.31
2019-03-22T13:40:30.900Z,13.46
2019-03-22T13:46:06.674Z,14.04
2019-03-22T13:48:33.937Z,14.43
2019-03-22T13:51:01.426Z,14.28
2019-03-22T13:53:28.740Z,13.86
2019-03-22T13:55:56.012Z,13.92
2019-03-22T13:58:23.259Z,14.09
2019-03-22T14:00:51.057Z,14.05
2019-03-22T14:03:18.317Z,14.08
2019-03-22T14:05:45.684Z,13.68
2019-03-22T14:08:13.005Z,14.28
2019-03-22T14:10:40.253Z,14.22
2019-03-22T14:13:07.521Z,13.99
2019-03-22T14:15:35.094Z,13.84
2019-03-22T14:18:02.556Z,13.62
2019-03-22T14:20:30.112Z,13.58
2019-03-22T14:22:57.805Z,13.65
2019-03-22T14:25:25.679Z,13.47
2019-03-22T14:27:52.960Z,13.28
2019-03-22T14:30:20.273Z,13.89
2019-03-22T14:32:47.634Z,13.78
2019-03-22T14:35:15.095Z,13.32
2019-03-22T14:37:42.409Z,13.71
2019-03-22T14:40:15.454Z,13.60
2019-03-22T14:42:39.391Z,14.15
2019-03-22T14:45:07.388Z,14.16
2019-03-22T14:47:35.015Z,13.18
2019-03-22T14:50:02.481Z,13.03
2019-03-22T14:52:29.795Z,13.18
2019-03-22T14:54:57.056Z,13.51
2019-03-22T14:57:24.359Z,13.70
2019-03-22T14:59:58.777Z,13.08
2019-03-22T15:02:20.929Z,13.14
2019-03-22T15:04:48.291Z,12.59
2019-03-22T15:07:19.960Z,12.84
2019-03-22T15:09:46.280Z,12.90
2019-03-22T15:12:14.243Z,12.62
2019-03-22T15:15:01.732Z,12.69
2019-03-22T15:17:48.689Z,12.62
2019-03-22T15:20:35.647Z,12.56
2019-03-22T15:23:22.645Z,12.28
2019-03-22T15:26:09.953Z,12.47
2019-03-22T15:28:56.866Z,11.98
2019-03-22T15:31:44.192Z,12.29
2019-03-22T15:34:31.390Z,12.02
2019-03-22T15:37:18.545Z,11.91
2019-03-22T15:40:05.800Z,12.23
2019-03-22T15:42:33.338Z,12.25
2019-03-22T15:45:00.714Z,12.38
2019-03-22T15:47:28.479Z,12.37
2019-03-22T15:49:55.891Z,12.09
2019-03-22T15:52:23.149Z,12.30
2019-03-22T15:54:50.406Z,12.08
2019-03-22T15:57:18.120Z,12.18
2019-03-22T15:59:45.523Z,12.01
2019-03-22T16:02:12.886Z,11.85
2019-03-22T16:04:40.209Z,11.88
2019-03-22T16:07:07.477Z,11.91
2019-03-22T16:09:34.733Z,11.78
2019-03-22T16:12:02.134Z,11.64
2019-03-22T16:14:29.395Z,11.77
2019-03-22T16:16:56.650Z,11.88
2019-03-22T16:19:24.260Z,11.35
2019-03-22T16:21:51.845Z,11.29
2019-03-22T16:24:19.235Z,11.22
2019-03-22T16:26:46.886Z,11.37
2019-03-22T16:29:14.136Z,11.35
2019-03-22T16:31:41.742Z,11.45
2019-03-22T16:34:09.161Z,11.27
2019-03-22T16:36:36.419Z,11.12
2019-03-22T16:39:44.989Z,11.15
2019-03-22T16:42:12.241Z,11.06
2019-03-22T16:44:39.554Z,10.98
2019-03-22T16:47:06.870Z,10.91
2019-03-22T16:49:34.047Z,10.76
2019-03-22T16:52:01.286Z,10.62
2019-03-22T16:54:28.730Z,10.50
2019-03-22T16:56:55.985Z,10.43
2019-03-22T16:59:23.243Z,10.56
2019-03-22T17:01:50.589Z,10.39
2019-03-22T17:04:18.126Z,10.35
2019-03-22T17:06:45.664Z,10.08
2019-03-22T17:09:13.294Z,10.02
2019-03-22T17:11:40.576Z,9.96
2019-03-22T17:14:07.833Z,9.97
2019-03-22T17:16:35.416Z,9.79
2019-03-22T17:19:02.787Z,9.68
2019-03-22T17:21:30.504Z,9.63
2019-03-22T17:23:58.111Z,9.40
2019-03-22T17:26:25.361Z,9.38
2019-03-22T17:28:52.713Z,9.33
2019-03-22T17:31:20.024Z,9.16
2019-03-22T17:33:47.786Z,9.13
2019-03-22T17:36:15.314Z,9.07
2019-03-22T17:39:02.264Z,8.96
2019-03-22T17:41:29.515Z,8.93
2019-03-22T17:43:57.168Z,8.88
2019-03-22T17:46:24.609Z,8.76
2019-03-22T17:48:52.178Z,8.69
2019-03-22T17:51:19.439Z,8.59
2019-03-22T17:53:47.197Z,8.45
2019-03-22T17:56:14.460Z,8.42
2019-03-22T17:58:41.718Z,8.29
2019-03-22T18:01:09.145Z,8.21
2019-03-22T18:03:36.430Z,8.11
2019-03-22T18:06:03.786Z,8.03
2019-03-22T18:08:31.116Z,8.00
2019-03-22T18:10:58.683Z,7.93
2019-03-22T18:13:26.064Z,7.82
2019-03-22T18:15:53.672Z,7.81
2019-03-22T18:18:20.942Z,7.78
2019-03-22T18:20:48.213Z,7.71
2019-03-22T18:23:15.538Z,7.74
2019-03-22T18:25:42.808Z,7.73
2019-03-22T18:28:10.084Z,7.67
2019-03-22T18:30:38.031Z,7.65
2019-03-22T18:33:05.601Z,7.61
2019-03-22T18:35:32.847Z,7.54
2019-03-22T18:38:00.495Z,7.55
2019-03-22T18:40:28.157Z,7.64
2019-03-22T18:42:55.719Z,7.56
2019-03-22T18:45:23.332Z,7.59
2019-03-22T18:48:03.159Z,7.60
2019-03-22T18:50:30.531Z,7.72
2019-03-22T18:52:58.115Z,7.85
2019-03-22T18:55:25.701Z,7.92
2019-03-22T18:57:53.021Z,7.97
2019-03-22T19:00:20.288Z,8.01
2019-03-22T19:02:47.554Z,7.99
2019-03-22T19:05:14.970Z,8.05
2019-03-22T19:07:42.645Z,8.06
2019-03-22T19:10:10.231Z,8.07
2019-03-22T19:12:37.650Z,8.05
2019-03-22T19:15:06.204Z,8.06
2019-03-22T19:17:33.598Z,7.99
2019-03-22T19:20:00.911Z,8.01
2019-03-22T19:22:28.173Z,7.95
2019-03-22T19:24:55.433Z,7.90
2019-03-22T19:27:22.746Z,7.96
2019-03-22T19:29:50.630Z,7.89
2019-03-22T19:32:18.206Z,7.83
2019-03-22T19:34:53.974Z,7.90
2019-03-22T19:37:15.230Z,7.97
2019-03-22T19:39:43.282Z,7.96
2019-03-22T19:42:10.972Z,7.86
2019-03-22T19:44:38.628Z,7.83
2019-03-22T19:47:06.286Z,7.73
2019-03-22T19:49:34.046Z,7.76
2019-03-22T19:52:02.035Z,7.78
2019-03-22T19:54:30.026Z,7.77
2019-03-22T19:56:57.703Z,7.74
2019-03-22T19:59:25.359Z,7.71
2019-03-22T20:01:52.929Z,7.71
2019-03-22T20:04:20.595Z,7.68
2019-03-22T20:06:48.232Z,7.64
2019-03-22T20:09:16.267Z,7.68
2019-03-22T20:11:43.915Z,7.61
2019-03-22T20:14:11.898Z,7.60
2019-03-22T20:16:39.523Z,7.61
2019-03-22T20:19:07.370Z,7.52
2019-03-22T20:21:34.991Z,7.65
2019-03-22T20:24:02.614Z,7.59
2019-03-22T20:26:30.294Z,7.46
2019-03-22T20:28:57.945Z,7.47
2019-03-22T20:31:25.873Z,7.51
2019-03-22T20:33:54.329Z,7.44
2019-03-22T20:36:21.979Z,7.43
2019-03-22T20:38:50.676Z,7.37
2019-03-22T20:41:18.355Z,7.31
2019-03-22T20:43:46.400Z,7.42
2019-03-22T20:46:14.020Z,7.40
2019-03-22T20:48:42.142Z,7.31
2019-03-22T20:51:09.836Z,7.33
2019-03-22T20:53:37.871Z,7.28
2019-03-22T20:56:05.944Z,7.28
2019-03-22T20:58:33.562Z,7.31
2019-03-22T21:01:01.194Z,7.26
2019-03-22T21:03:28.959Z,7.34
2019-03-22T21:05:56.993Z,7.32
2019-03-22T21:08:25.064Z,7.24
2019-03-22T21:10:52.753Z,7.23
2019-03-22T21:13:20.425Z,7.19
2019-03-22T21:15:48.052Z,7.21
2019-03-22T21:18:16.116Z,7.32
2019-03-22T21:20:44.081Z,7.15
2019-03-22T21:23:11.696Z,7.10
2019-03-22T21:25:39.411Z,7.07
2019-03-22T21:28:07.050Z,6.98
2019-03-22T21:30:35.056Z,6.97
2019-03-22T21:33:02.792Z,6.99
2019-03-22T21:35:37.203Z,6.90
2019-03-22T21:38:10.096Z,6.84
2019-03-22T21:40:29.425Z,6.81
2019-03-22T21:42:56.702Z,6.76
2019-03-22T21:45:25.086Z,6.68
2019-03-22T21:47:52.634Z,6.63
2019-03-22T21:50:20.272Z,6.66
2019-03-22T21:52:47.679Z,6.59
2019-03-22T21:55:15.014Z,6.62
2019-03-22T21:57:42.260Z,6.65
2019-03-22T22:00:09.727Z,6.65
2019-03-22T22:02:37.249Z,6.70
2019-03-22T22:05:05.053Z,6.58
2019-03-22T22:07:32.321Z,6.58
2019-03-22T22:10:00.251Z,6.46
2019-03-22T22:12:29.780Z,6.42
2019-03-22T22:14:56.744Z,6.46
2019-03-22T22:17:24.061Z,6.49
2019-03-22T22:19:51.322Z,6.46
2019-03-22T22:22:18.959Z,6.42
2019-03-22T22:24:46.625Z,6.45
2019-03-22T22:27:14.417Z,6.42
2019-03-22T22:29:43.074Z,6.36
2019-03-22T22:32:10.449Z,6.36
2019-03-22T22:34:38.394Z,6.33
2019-03-22T22:37:05.673Z,6.30
2019-03-22T22:39:33.438Z,6.28
2019-03-22T22:42:01.017Z,6.33
2019-03-22T22:44:28.544Z,6.35
2019-03-22T22:46:56.287Z,6.39
2019-03-22T22:49:23.593Z,6.39
2019-03-22T22:51:50.857Z,6.30
2019-03-22T22:54:18.555Z,6.31
2019-03-22T22:56:45.814Z,6.24
2019-03-22T22:59:13.307Z,6.25
2019-03-22T23:01:40.800Z,6.29
2019-03-22T23:04:08.662Z,6.23
2019-03-22T23:06:36.766Z,6.13
2019-03-22T23:09:45.106Z,6.08
2019-03-22T23:12:12.684Z,5.99
2019-03-22T23:14:40.380Z,6.09
2019-03-22T23:17:08.009Z,6.02
2019-03-22T23:19:35.393Z,5.98
2019-03-22T23:22:02.662Z,5.95
2019-03-22T23:24:30.540Z,5.99
2019-03-22T23:26:57.838Z,5.98
2019-03-22T23:29:25.067Z,6.01
2019-03-22T23:31:52.464Z,6.02
2019-03-22T23:34:19.726Z,6.07
2019-03-22T23:36:46.989Z,6.03
2019-03-22T23:39:14.340Z,6.00
2019-03-22T23:41:41.946Z,6.08
2019-03-22T23:44:09.491Z,6.09
2019-03-22T23:46:37.299Z,6.07
2019-03-22T23:49:04.659Z,6.12
2019-03-22T23:51:32.160Z,6.17
2019-03-22T23:53:59.664Z,6.16
2019-03-22T23:56:26.968Z,6.15
2019-03-22T23:58:54.610Z,6.20
